Time;durP1;ratioP1;P1;durP2;ratioP2;P2;SDS_P1;SDS_P2;PMS_P1;PMS_P2;Temp;Humidity;BMP_temperature;BMP_pressure;BME280_temperature;BME280_humidity;BME280_pressure;Samples;Min_cycle;Max_cycle;Signal;HPM_P1;HPM_P2
2022/09/05 00:00:18;;;;;;;7.15;2.88;;;;;;;;;;4986128;28;20049;-47
2022/09/05 00:03:07;;;;;;;7.50;2.88;;;;;;;;;;4982173;28;20030;-49
2022/09/05 00:06:02;;;;;;;5.85;2.45;;;;;;;;;;4984184;28;20554;-49
2022/09/05 00:08:47;;;;;;;6.70;2.67;;;;;;;;;;4983551;28;20042;-49
2022/09/05 00:11:40;;;;;;;6.78;2.75;;;;;;;;;;5002081;28;20037;-49
2022/09/05 00:14:43;;;;;;;5.65;2.60;;;;;;;;;;5048548;28;20501;-49
2022/09/05 00:17:40;;;;;;;6.28;2.40;;;;;;;;;;5054557;28;20068;-48
2022/09/05 00:20:17;;;;;;;4.53;2.20;;;;;;;;;;5055033;28;20032;-49
2022/09/05 00:23:14;;;;;;;8.73;2.63;;;;;;;;;;5051387;28;20023;-50
2022/09/05 00:26:05;;;;;;;10.10;2.90;;;;;;;;;;5043454;28;20033;-49
2022/09/05 00:28:37;;;;;;;7.00;2.53;;;;;;;;;;5046921;28;20040;-48
2022/09/05 00:31:18;;;;;;;7.78;2.83;;;;;;;;;;5049608;28;20029;-48
2022/09/05 00:34:19;;;;;;;6.45;2.63;;;;;;;;;;5055523;28;20384;-47
2022/09/05 00:36:53;;;;;;;5.90;2.33;;;;;;;;;;4995861;28;20055;-45
2022/09/05 00:39:30;;;;;;;6.13;2.55;;;;;;;;;;4993006;28;20121;-47
2022/09/05 00:42:00;;;;;;;8.30;2.70;;;;;;;;;;4991932;28;20050;-50
2022/09/05 00:44:31;;;;;;;6.35;2.65;;;;;;;;;;4997386;28;20057;-49
2022/09/05 00:47:13;;;;;;;7.63;2.50;;;;;;;;;;4996152;28;20423;-48
2022/09/05 00:49:48;;;;;;;11.27;3.10;;;;;;;;;;4990613;28;20042;-46
2022/09/05 00:53:03;;;;;;;6.93;2.40;;;;;;;;;;4995430;28;20446;-47
2022/09/05 00:55:45;;;;;;;7.78;2.75;;;;;;;;;;4982755;28;20188;-45
2022/09/05 00:58:19;;;;;;;6.03;2.55;;;;;;;;;;5000356;28;20038;-46
2022/09/05 01:00:54;;;;;;;8.10;2.88;;;;;;;;;;4994022;28;20042;-50
2022/09/05 01:03:46;;;;;;;6.90;2.55;;;;;;;;;;4996841;28;20439;-47
2022/09/05 01:06:54;;;;;;;8.45;2.45;;;;;;;;;;5000194;28;20056;-48
2022/09/05 01:09:27;;;;;;;7.30;2.30;;;;;;;;;;4991182;28;20046;-45
2022/09/05 01:12:14;;;;;;;6.97;2.40;;;;;;;;;;4999078;28;20034;-46
2022/09/05 01:14:53;;;;;;;5.65;2.63;;;;;;;;;;5049660;28;20025;-49
2022/09/05 01:17:30;;;;;;;3.90;2.40;;;;;;;;;;5055210;28;20036;-49
2022/09/05 01:20:19;;;;;;;7.57;2.65;;;;;;;;;;5052951;28;20029;-52
2022/09/05 01:23:06;;;;;;;9.55;2.90;;;;;;;;;;5051541;28;20032;-50
2022/09/05 01:25:59;;;;;;;11.63;3.25;;;;;;;;;;5054925;28;20040;-49
2022/09/05 01:28:43;;;;;;;5.95;2.95;;;;;;;;;;5059241;28;20025;-49
2022/09/05 01:31:41;;;;;;;6.20;2.45;;;;;;;;;;5044146;28;20032;-47
2022/09/05 01:34:13;;;;;;;6.82;2.72;;;;;;;;;;5043845;28;20033;-49
2022/09/05 01:36:44;;;;;;;5.18;2.50;;;;;;;;;;5057471;28;20038;-47
2022/09/05 01:39:24;;;;;;;6.25;2.40;;;;;;;;;;5059850;28;20025;-52
2022/09/05 01:42:28;;;;;;;6.63;2.85;;;;;;;;;;5060597;28;20028;-47
2022/09/05 01:45:09;;;;;;;3.60;2.00;;;;;;;;;;5055253;28;20056;-46
2022/09/05 01:47:46;;;;;;;7.40;3.03;;;;;;;;;;5049447;28;20383;-52
2022/09/05 01:50:39;;;;;;;7.05;2.97;;;;;;;;;;5058035;28;20032;-50
2022/09/05 01:53:13;;;;;;;8.50;2.50;;;;;;;;;;5053070;28;20029;-46
2022/09/05 01:55:53;;;;;;;4.55;2.42;;;;;;;;;;5058018;28;20048;-47
2022/09/05 01:58:30;;;;;;;7.25;2.45;;;;;;;;;;5059870;28;20024;-47
2022/09/05 02:01:10;;;;;;;5.55;2.30;;;;;;;;;;5053856;28;20020;-49
2022/09/05 02:03:45;;;;;;;8.48;2.45;;;;;;;;;;5050045;28;20031;-51
2022/09/05 02:06:36;;;;;;;7.55;2.60;;;;;;;;;;5047389;28;20029;-51
2022/09/05 02:09:08;;;;;;;6.03;2.40;;;;;;;;;;5055023;28;20027;-48
2022/09/05 02:11:59;;;;;;;11.45;2.72;;;;;;;;;;5052253;28;20116;-51
2022/09/05 02:14:53;;;;;;;6.13;2.42;;;;;;;;;;5055074;28;20040;-47
2022/09/05 02:17:40;;;;;;;11.88;2.25;;;;;;;;;;5049804;28;20032;-46
2022/09/05 02:20:19;;;;;;;9.60;2.28;;;;;;;;;;5052197;28;20104;-47
2022/09/05 02:22:50;;;;;;;6.97;2.38;;;;;;;;;;5052436;28;20027;-47
2022/09/05 02:25:23;;;;;;;7.88;2.83;;;;;;;;;;5054484;28;20070;-46
2022/09/05 02:27:54;;;;;;;7.53;2.38;;;;;;;;;;5057702;28;20504;-47
2022/09/05 02:30:21;;;;;;;;;;;;;;;;;;5058324;28;20067;-45
2022/09/05 02:33:09;;;;;;;7.38;2.70;;;;;;;;;;5050370;28;19962;-51
2022/09/05 02:35:34;;;;;;;6.75;2.45;;;;;;;;;;5055850;28;20040;-48
2022/09/05 02:38:38;;;;;;;4.72;2.45;;;;;;;;;;5045915;28;20024;-51
2022/09/05 02:41:25;;;;;;;6.22;2.35;;;;;;;;;;4988153;28;20141;-48
2022/09/05 02:44:11;;;;;;;6.32;2.50;;;;;;;;;;4986192;28;20054;-50
2022/09/05 02:47:03;;;;;;;6.60;2.20;;;;;;;;;;4985987;28;20431;-52
2022/09/05 02:50:06;;;;;;;6.30;2.88;;;;;;;;;;4971175;28;20594;-46
2022/09/05 02:52:37;;;;;;;7.38;2.15;;;;;;;;;;4914990;29;20578;-49
2022/09/05 02:55:13;;;;;;;7.55;2.72;;;;;;;;;;4914420;29;20046;-47
2022/09/05 02:58:00;;;;;;;4.45;2.38;;;;;;;;;;4919731;29;20032;-48
2022/09/05 03:00:37;;;;;;;6.25;2.38;;;;;;;;;;4919743;29;20511;-48
2022/09/05 03:03:27;;;;;;;5.20;2.42;;;;;;;;;;4918159;29;20088;-48
2022/09/05 03:06:02;;;;;;;5.05;2.33;;;;;;;;;;4920436;29;20568;-49
2022/09/05 03:09:18;;;;;;;4.25;2.28;;;;;;;;;;4915641;29;20039;-51
2022/09/05 03:12:16;;;;;;;6.43;2.72;;;;;;;;;;4907997;29;20158;-49
2022/09/05 03:14:45;;;;;;;5.40;2.33;;;;;;;;;;4884012;29;20044;-49
2022/09/05 03:17:28;;;;;;;6.82;2.80;;;;;;;;;;4887454;29;20561;-48
2022/09/05 03:20:22;;;;;;;7.32;2.53;;;;;;;;;;4891709;29;20044;-51
2022/09/05 03:23:06;;;;;;;7.35;2.65;;;;;;;;;;4887556;29;20043;-51
2022/09/05 03:26:04;;;;;;;5.97;2.13;;;;;;;;;;4886800;29;20048;-49
2022/09/05 03:28:52;;;;;;;6.95;2.90;;;;;;;;;;4913103;29;20413;-49
2022/09/05 03:31:28;;;;;;;5.32;2.50;;;;;;;;;;4926976;29;20032;-48
2022/09/05 03:34:00;;;;;;;4.45;2.30;;;;;;;;;;4927448;29;20039;-51
2022/09/05 03:36:50;;;;;;;8.23;2.47;;;;;;;;;;4926348;29;20043;-52
2022/09/05 03:39:21;;;;;;;12.75;3.03;;;;;;;;;;4924066;29;20106;-49
2022/09/05 03:42:18;;;;;;;5.03;2.60;;;;;;;;;;4925570;29;20040;-50
2022/09/05 03:45:17;;;;;;;6.88;2.47;;;;;;;;;;4924422;29;20084;-51
2022/09/05 03:48:20;;;;;;;4.78;2.00;;;;;;;;;;4949131;28;20043;-45
2022/09/05 03:50:45;;;;;;;;;;;;;;;;;;4968627;28;20566;-47
2022/09/05 03:53:22;;;;;;;7.18;2.80;;;;;;;;;;5038374;28;19925;-49
2022/09/05 03:56:06;;;;;;;5.07;2.42;;;;;;;;;;5045801;28;20033;-45
2022/09/05 03:58:46;;;;;;;4.90;2.28;;;;;;;;;;5051225;28;20540;-45
2022/09/05 04:01:23;;;;;;;8.38;2.55;;;;;;;;;;5042839;28;20144;-52
2022/09/05 04:04:01;;;;;;;5.65;2.10;;;;;;;;;;5035819;28;20037;-47
2022/09/05 04:06:46;;;;;;;8.25;2.67;;;;;;;;;;5045243;28;20060;-51
2022/09/05 04:09:15;;;;;;;3.97;2.17;;;;;;;;;;5052110;28;20024;-44
2022/09/05 04:11:46;;;;;;;6.35;1.98;;;;;;;;;;5051864;28;20047;-46
2022/09/05 04:14:30;;;;;;;6.55;3.47;;;;;;;;;;5048623;28;20405;-52
2022/09/05 04:17:02;;;;;;;10.00;2.55;;;;;;;;;;5049249;28;20026;-51
2022/09/05 04:19:35;;;;;;;15.18;3.58;;;;;;;;;;5031601;28;20044;-48
2022/09/05 04:22:16;;;;;;;6.60;1.90;;;;;;;;;;5038722;28;20036;-52
2022/09/05 04:24:57;;;;;;;6.50;2.72;;;;;;;;;;5053664;28;20065;-45
2022/09/05 04:27:23;;;;;;;7.75;2.53;;;;;;;;;;5044540;28;20846;-47
2022/09/05 04:30:17;;;;;;;8.65;2.50;;;;;;;;;;5047625;28;20038;-49
2022/09/05 04:33:06;;;;;;;6.00;2.38;;;;;;;;;;5051170;28;20025;-49
2022/09/05 04:35:44;;;;;;;4.10;1.95;;;;;;;;;;5036257;28;20356;-51
2022/09/05 04:38:11;;;;;;;7.53;2.42;;;;;;;;;;5056163;28;20033;-48
2022/09/05 04:40:39;;;;;;;7.68;2.47;;;;;;;;;;5049393;28;20034;-49
2022/09/05 04:43:30;;;;;;;6.88;2.35;;;;;;;;;;5054687;28;20539;-48
2022/09/05 04:46:15;;;;;;;5.40;2.10;;;;;;;;;;5056284;28;20117;-46
2022/09/05 04:48:47;;;;;;;6.60;2.28;;;;;;;;;;5048149;28;20025;-48
2022/09/05 04:51:32;;;;;;;3.95;2.33;;;;;;;;;;5054486;28;20123;-48
2022/09/05 04:54:08;;;;;;;8.18;2.28;;;;;;;;;;5052720;28;20091;-49
2022/09/05 04:56:45;;;;;;;6.97;2.30;;;;;;;;;;5051807;28;20064;-48
2022/09/05 04:59:25;;;;;;;5.90;2.30;;;;;;;;;;5056195;28;20516;-47
2022/09/05 05:01:55;;;;;;;7.60;2.42;;;;;;;;;;5051802;28;20040;-49
2022/09/05 05:04:23;;;;;;;8.32;2.88;;;;;;;;;;5053982;28;20028;-52
2022/09/05 05:07:11;;;;;;;5.35;2.50;;;;;;;;;;5052262;28;20029;-50
2022/09/05 05:09:45;;;;;;;5.97;2.05;;;;;;;;;;5047094;28;20025;-50
2022/09/05 05:12:36;;;;;;;5.68;3.05;;;;;;;;;;5050521;28;20041;-50
2022/09/05 05:15:10;;;;;;;8.60;2.80;;;;;;;;;;5053048;28;20033;-52
2022/09/05 05:18:27;;;;;;;5.80;2.30;;;;;;;;;;5049273;28;20028;-48
2022/09/05 05:21:06;;;;;;;7.13;2.28;;;;;;;;;;5041943;28;20156;-50
2022/09/05 05:23:49;;;;;;;8.05;3.03;;;;;;;;;;5055257;28;20025;-49
2022/09/05 05:26:44;;;;;;;9.27;2.83;;;;;;;;;;5050676;28;20061;-48
2022/09/05 05:29:25;;;;;;;7.93;2.42;;;;;;;;;;5053188;28;20093;-47
2022/09/05 05:31:55;;;;;;;9.15;2.60;;;;;;;;;;5038770;28;20045;-49
2022/09/05 05:34:26;;;;;;;6.32;2.30;;;;;;;;;;5048618;28;20034;-52
2022/09/05 05:37:01;;;;;;;9.00;2.60;;;;;;;;;;5049601;28;20427;-52
2022/09/05 05:39:29;;;;;;;5.50;2.60;;;;;;;;;;5052530;28;20056;-48
2022/09/05 05:41:57;;;;;;;5.18;2.40;;;;;;;;;;5057060;28;20094;-50
2022/09/05 05:44:30;;;;;;;3.85;2.47;;;;;;;;;;5054717;28;20027;-49
2022/09/05 05:47:01;;;;;;;7.53;2.10;;;;;;;;;;5049687;28;20024;-48
2022/09/05 05:50:04;;;;;;;7.57;2.30;;;;;;;;;;5057523;28;20025;-50
2022/09/05 05:53:03;;;;;;;7.55;2.67;;;;;;;;;;5052577;28;21041;-51
2022/09/05 05:55:35;;;;;;;5.35;2.80;;;;;;;;;;5053400;28;20048;-50
2022/09/05 05:58:03;;;;;;;6.18;2.65;;;;;;;;;;5055520;28;20045;-46
2022/09/05 06:00:54;;;;;;;7.75;2.42;;;;;;;;;;5053671;28;20067;-49
2022/09/05 06:03:58;;;;;;;5.63;2.30;;;;;;;;;;5046811;28;20072;-49
2022/09/05 06:06:45;;;;;;;13.90;2.58;;;;;;;;;;5055462;28;20063;-48
2022/09/05 06:09:46;;;;;;;9.25;3.05;;;;;;;;;;5056555;28;20101;-51
2022/09/05 06:12:27;;;;;;;7.65;2.50;;;;;;;;;;5051132;28;20029;-48
2022/09/05 06:15:31;;;;;;;5.18;2.25;;;;;;;;;;5056428;28;20040;-46
2022/09/05 06:18:19;;;;;;;5.28;2.40;;;;;;;;;;5052520;28;20605;-46
2022/09/05 06:21:14;;;;;;;6.03;2.20;;;;;;;;;;5050563;28;20039;-51
2022/09/05 06:23:51;;;;;;;8.40;2.15;;;;;;;;;;5051989;28;20030;-49
2022/09/05 06:27:01;;;;;;;3.13;2.03;;;;;;;;;;5053875;28;20028;-48
2022/09/05 06:29:30;;;;;;;4.13;2.40;;;;;;;;;;5025658;28;20644;-46
2022/09/05 06:32:26;;;;;;;3.70;2.38;;;;;;;;;;5025206;28;20040;-48
2022/09/05 06:35:29;;;;;;;8.60;2.67;;;;;;;;;;5025387;28;20549;-49
2022/09/05 06:38:30;;;;;;;7.68;2.35;;;;;;;;;;5025677;28;20125;-46
2022/09/05 06:41:14;;;;;;;5.10;2.20;;;;;;;;;;5026317;28;20144;-48
2022/09/05 06:44:23;;;;;;;4.50;2.28;;;;;;;;;;5026002;28;20091;-50
2022/09/05 06:46:53;;;;;;;6.63;2.20;;;;;;;;;;5025403;28;20493;-48
2022/09/05 06:49:27;;;;;;;5.95;2.25;;;;;;;;;;5024879;28;20494;-51
2022/09/05 06:52:27;;;;;;;7.85;2.28;;;;;;;;;;5025917;28;20486;-50
2022/09/05 06:54:58;;;;;;;5.95;2.50;;;;;;;;;;5024027;28;20057;-48
2022/09/05 06:57:51;;;;;;;11.20;2.37;;;;;;;;;;5028928;28;20040;-46
2022/09/05 07:00:24;;;;;;;11.10;2.47;;;;;;;;;;5024699;28;20274;-50
2022/09/05 07:03:05;;;;;;;7.45;2.10;;;;;;;;;;5026442;28;20025;-48
2022/09/05 07:05:45;;;;;;;6.50;2.50;;;;;;;;;;5030738;28;20053;-50
2022/09/05 07:08:14;;;;;;;10.07;2.38;;;;;;;;;;5051664;28;20028;-48
2022/09/05 07:10:47;;;;;;;8.20;2.45;;;;;;;;;;5056599;28;20036;-47
2022/09/05 07:13:14;;;;;;;10.80;2.47;;;;;;;;;;5047331;28;20384;-50
2022/09/05 07:15:55;;;;;;;12.10;2.45;;;;;;;;;;5052400;28;20113;-52
2022/09/05 07:18:42;;;;;;;4.97;2.42;;;;;;;;;;5058482;28;20052;-47
2022/09/05 07:21:31;;;;;;;8.80;2.33;;;;;;;;;;5060001;28;20037;-48
2022/09/05 07:24:21;;;;;;;5.93;2.20;;;;;;;;;;5055095;28;20040;-49
2022/09/05 07:26:48;;;;;;;5.28;2.45;;;;;;;;;;5051723;28;20629;-50
2022/09/05 07:29:26;;;;;;;8.93;2.13;;;;;;;;;;5049065;28;20029;-53
2022/09/05 07:31:54;;;;;;;6.70;2.35;;;;;;;;;;5050343;28;20040;-50
2022/09/05 07:34:25;;;;;;;9.40;2.13;;;;;;;;;;5053310;28;20057;-47
2022/09/05 07:37:18;;;;;;;7.77;2.37;;;;;;;;;;5053626;28;20465;-46
2022/09/05 07:39:50;;;;;;;7.22;2.58;;;;;;;;;;5053641;28;20041;-49
2022/09/05 07:42:23;;;;;;;15.35;2.47;;;;;;;;;;5051032;28;20048;-48
2022/09/05 07:44:55;;;;;;;5.78;2.33;;;;;;;;;;5051376;28;20416;-49
2022/09/05 07:47:34;;;;;;;5.47;2.28;;;;;;;;;;5047782;28;20552;-49
2022/09/05 07:50:06;;;;;;;10.52;2.40;;;;;;;;;;5047516;28;20132;-49
2022/09/05 07:52:34;;;;;;;;;;;;;;;;;;5054758;28;20180;-51
2022/09/05 07:55:07;;;;;;;6.03;2.10;;;;;;;;;;5040613;28;20262;-51
2022/09/05 07:57:41;;;;;;;5.80;2.10;;;;;;;;;;5051900;28;20116;-50
2022/09/05 08:00:11;;;;;;;4.43;2.13;;;;;;;;;;5051665;28;20156;-51
2022/09/05 08:02:43;;;;;;;5.03;2.30;;;;;;;;;;5050795;28;20078;-46
2022/09/05 08:05:13;;;;;;;8.52;2.42;;;;;;;;;;5053545;28;20036;-53
2022/09/05 08:07:43;;;;;;;8.77;2.50;;;;;;;;;;5050018;28;20037;-50
2022/09/05 08:10:19;;;;;;;4.60;1.83;;;;;;;;;;5055354;28;20076;-48
2022/09/05 08:12:51;;;;;;;5.88;2.13;;;;;;;;;;5057808;28;20512;-50
2022/09/05 08:15:23;;;;;;;7.57;2.42;;;;;;;;;;5052452;28;20032;-47
2022/09/05 08:18:07;;;;;;;5.65;2.50;;;;;;;;;;5049482;28;20027;-51
2022/09/05 08:20:56;;;;;;;7.05;2.35;;;;;;;;;;5049767;28;20115;-48
2022/09/05 08:23:34;;;;;;;4.45;2.25;;;;;;;;;;5039550;28;20024;-47
2022/09/05 08:26:11;;;;;;;12.55;2.47;;;;;;;;;;5055074;28;20040;-50
2022/09/05 08:29:15;;;;;;;6.50;2.45;;;;;;;;;;5053420;28;20028;-51
2022/09/05 08:32:07;;;;;;;7.10;2.10;;;;;;;;;;5046073;28;20115;-49
2022/09/05 08:34:38;;;;;;;6.57;2.20;;;;;;;;;;5052781;28;20758;-49
2022/09/05 08:37:06;;;;;;;4.93;1.98;;;;;;;;;;5052230;28;20045;-49
2022/09/05 08:39:33;;;;;;;6.57;2.17;;;;;;;;;;5051053;28;20029;-50
2022/09/05 08:41:58;;;;;;;10.00;2.35;;;;;;;;;;5059151;28;20020;-50
2022/09/05 08:44:49;;;;;;;6.88;2.50;;;;;;;;;;5050171;28;20400;-50
2022/09/05 08:47:32;;;;;;;5.50;2.20;;;;;;;;;;5056455;28;20029;-51
2022/09/05 08:50:27;;;;;;;9.57;2.35;;;;;;;;;;5055812;28;20386;-53
2022/09/05 08:53:08;;;;;;;13.32;2.03;;;;;;;;;;5044478;28;20044;-47
2022/09/05 08:55:50;;;;;;;6.13;2.10;;;;;;;;;;5056075;28;20043;-53
2022/09/05 08:58:47;;;;;;;11.10;2.63;;;;;;;;;;5051114;28;20354;-52
2022/09/05 09:01:43;;;;;;;10.35;2.47;;;;;;;;;;5047296;28;20037;-51
2022/09/05 09:04:37;;;;;;;8.82;2.35;;;;;;;;;;5055604;28;20032;-49
2022/09/05 09:07:18;;;;;;;11.88;2.10;;;;;;;;;;5050883;28;20047;-49
2022/09/05 09:10:02;;;;;;;17.35;2.60;;;;;;;;;;5057920;28;20470;-51
2022/09/05 09:12:45;;;;;;;11.10;2.20;;;;;;;;;;5054565;28;20071;-50
2022/09/05 09:15:13;;;;;;;8.65;2.72;;;;;;;;;;5056705;28;20025;-49
2022/09/05 09:17:48;;;;;;;11.77;2.28;;;;;;;;;;5059870;28;20079;-52
2022/09/05 09:20:20;;;;;;;9.05;3.03;;;;;;;;;;5058614;28;20071;-50
2022/09/05 09:22:57;;;;;;;6.95;2.25;;;;;;;;;;5060015;28;20163;-51
2022/09/05 09:25:31;;;;;;;10.70;2.92;;;;;;;;;;5057493;28;20033;-53
2022/09/05 09:28:27;;;;;;;20.23;2.55;;;;;;;;;;5059280;28;20025;-49
2022/09/05 09:31:03;;;;;;;15.48;2.75;;;;;;;;;;5061554;28;20445;-48
2022/09/05 09:33:54;;;;;;;9.98;2.33;;;;;;;;;;5056676;28;20106;-50
2022/09/05 09:36:53;;;;;;;6.00;2.10;;;;;;;;;;5061730;28;20424;-48
2022/09/05 09:39:54;;;;;;;7.28;2.20;;;;;;;;;;5052999;28;20036;-50
2022/09/05 09:42:27;;;;;;;9.68;2.30;;;;;;;;;;5056388;28;20033;-49
2022/09/05 09:45:27;;;;;;;8.88;2.22;;;;;;;;;;5054593;28;20131;-51
2022/09/05 09:47:59;;;;;;;7.90;2.35;;;;;;;;;;5056038;28;20040;-50
2022/09/05 09:50:55;;;;;;;8.88;2.20;;;;;;;;;;5063264;28;20036;-50
2022/09/05 09:53:36;;;;;;;10.63;2.38;;;;;;;;;;5057256;28;20028;-53
2022/09/05 09:56:19;;;;;;;6.25;2.35;;;;;;;;;;5050653;28;20055;-47
2022/09/05 09:58:54;;;;;;;8.48;2.63;;;;;;;;;;5057655;28;20056;-48
2022/09/05 10:01:38;;;;;;;7.22;2.15;;;;;;;;;;5059940;28;20123;-50
2022/09/05 10:04:35;;;;;;;6.57;2.05;;;;;;;;;;5060043;28;20032;-48
2022/09/05 10:07:19;;;;;;;12.50;2.30;;;;;;;;;;5062409;28;20043;-47
2022/09/05 10:09:52;;;;;;;9.27;2.58;;;;;;;;;;5060340;28;20405;-51
2022/09/05 10:12:39;;;;;;;9.60;2.47;;;;;;;;;;5057870;28;20038;-50
2022/09/05 10:15:24;;;;;;;7.47;2.42;;;;;;;;;;5058607;28;20040;-51
2022/09/05 10:17:53;;;;;;;7.80;2.40;;;;;;;;;;5054533;28;20056;-46
2022/09/05 10:20:25;;;;;;;10.18;2.25;;;;;;;;;;5055711;28;20037;-47
2022/09/05 10:23:09;;;;;;;10.07;2.75;;;;;;;;;;5054493;28;20467;-49
2022/09/05 10:25:41;;;;;;;7.45;2.13;;;;;;;;;;5059472;28;20037;-51
2022/09/05 10:28:54;;;;;;;5.53;2.30;;;;;;;;;;5058922;28;20031;-48
2022/09/05 10:31:24;;;;;;;7.63;2.60;;;;;;;;;;4968221;28;20165;-46
2022/09/05 10:34:17;;;;;;;9.43;2.13;;;;;;;;;;4976784;28;20041;-50
2022/09/05 10:36:50;;;;;;;8.50;2.13;;;;;;;;;;4976480;28;20065;-53
2022/09/05 10:39:28;;;;;;;11.48;3.70;;;;;;;;;;4977569;28;20090;-52
2022/09/05 10:41:59;;;;;;;14.18;2.45;;;;;;;;;;4977737;28;20048;-48
2022/09/05 10:44:40;;;;;;;11.73;2.28;;;;;;;;;;4974998;28;20122;-48
2022/09/05 10:47:05;;;;;;;7.73;2.80;;;;;;;;;;4968514;28;20074;-46
2022/09/05 10:49:36;;;;;;;13.63;2.55;;;;;;;;;;4970591;28;20836;-46
2022/09/05 10:52:39;;;;;;;8.43;2.70;;;;;;;;;;4976290;28;20026;-51
2022/09/05 10:55:17;;;;;;;10.65;2.55;;;;;;;;;;4972342;28;20045;-48
2022/09/05 10:58:14;;;;;;;7.00;2.35;;;;;;;;;;4966118;28;20043;-47
2022/09/05 11:00:55;;;;;;;12.00;3.05;;;;;;;;;;4975628;28;20043;-50
2022/09/05 11:03:31;;;;;;;11.55;3.05;;;;;;;;;;5049009;28;20067;-47
2022/09/05 11:06:00;;;;;;;10.35;2.53;;;;;;;;;;5055256;28;20044;-48
2022/09/05 11:08:40;;;;;;;9.18;2.50;;;;;;;;;;5052371;28;20385;-48
2022/09/05 11:11:19;;;;;;;9.43;2.58;;;;;;;;;;5055059;28;20531;-49
2022/09/05 11:13:48;;;;;;;5.63;2.33;;;;;;;;;;5049292;28;20033;-45
2022/09/05 11:16:17;;;;;;;11.38;2.22;;;;;;;;;;5053878;28;20025;-46
2022/09/05 11:18:45;;;;;;;7.75;2.20;;;;;;;;;;5051673;28;20060;-47
2022/09/05 11:21:35;;;;;;;17.20;2.47;;;;;;;;;;5049909;28;20025;-47
2022/09/05 11:24:49;;;;;;;11.93;2.85;;;;;;;;;;5049560;28;20039;-52
2022/09/05 11:27:38;;;;;;;8.85;2.80;;;;;;;;;;5041809;28;20047;-50
2022/09/05 11:30:09;;;;;;;5.72;2.30;;;;;;;;;;5047836;28;20040;-46
2022/09/05 11:32:57;;;;;;;11.95;3.20;;;;;;;;;;5047383;28;20053;-46
2022/09/05 11:35:47;;;;;;;9.75;2.85;;;;;;;;;;5046023;28;20079;-48
2022/09/05 11:38:43;;;;;;;10.07;2.65;;;;;;;;;;5050987;28;20065;-53
2022/09/05 11:41:28;;;;;;;11.43;2.63;;;;;;;;;;5048712;28;20064;-49
2022/09/05 11:44:03;;;;;;;6.40;2.30;;;;;;;;;;5047496;28;20464;-48
2022/09/05 11:46:47;;;;;;;10.60;3.45;;;;;;;;;;5051096;28;20035;-49
2022/09/05 11:49:34;;;;;;;8.98;2.60;;;;;;;;;;5055649;28;20046;-51
2022/09/05 11:52:20;;;;;;;12.40;3.20;;;;;;;;;;5050444;28;20037;-49
2022/09/05 11:55:08;;;;;;;8.90;3.53;;;;;;;;;;5040931;28;20086;-48
2022/09/05 11:58:11;;;;;;;6.28;2.85;;;;;;;;;;5052019;28;20071;-49
2022/09/05 12:00:45;;;;;;;7.65;3.25;;;;;;;;;;5054009;28;20063;-48
2022/09/05 12:03:33;;;;;;;8.18;2.75;;;;;;;;;;5053317;28;20040;-51
2022/09/05 12:06:02;;;;;;;5.60;2.58;;;;;;;;;;5055350;28;20111;-49
2022/09/05 12:08:40;;;;;;;9.73;2.38;;;;;;;;;;5057508;28;20032;-48
2022/09/05 12:11:34;;;;;;;8.95;2.40;;;;;;;;;;5056222;28;20029;-47
2022/09/05 12:14:20;;;;;;;6.55;2.58;;;;;;;;;;5057106;28;20072;-50
2022/09/05 12:17:01;;;;;;;11.07;2.63;;;;;;;;;;5053602;28;20607;-47
2022/09/05 12:19:50;;;;;;;10.88;2.45;;;;;;;;;;5050123;28;20043;-49
2022/09/05 12:22:17;;;;;;;13.75;2.83;;;;;;;;;;5014216;28;20071;-48
2022/09/05 12:25:21;;;;;;;6.95;2.50;;;;;;;;;;5009316;28;20040;-48
2022/09/05 12:27:53;;;;;;;11.73;2.70;;;;;;;;;;4964919;28;20597;-48
2022/09/05 12:30:26;;;;;;;8.57;2.42;;;;;;;;;;4978360;28;20034;-46
2022/09/05 12:32:55;;;;;;;6.85;2.30;;;;;;;;;;4974187;28;20108;-49
2022/09/05 12:35:35;;;;;;;5.18;2.38;;;;;;;;;;4979047;28;20077;-51
2022/09/05 12:38:25;;;;;;;7.47;2.15;;;;;;;;;;4972884;28;20043;-48
2022/09/05 12:41:20;;;;;;;9.57;2.22;;;;;;;;;;4976433;28;20470;-48
2022/09/05 12:44:00;;;;;;;10.50;2.35;;;;;;;;;;4977935;28;20037;-50
2022/09/05 12:46:54;;;;;;;6.55;2.30;;;;;;;;;;4979261;28;20184;-50
2022/09/05 12:49:31;;;;;;;6.45;2.63;;;;;;;;;;4981647;28;20046;-51
2022/09/05 12:52:08;;;;;;;9.23;2.38;;;;;;;;;;4979653;28;20121;-49
2022/09/05 12:54:39;;;;;;;10.38;2.47;;;;;;;;;;4983616;28;20054;-46
2022/09/05 12:57:14;;;;;;;15.85;2.40;;;;;;;;;;4977551;28;20479;-50
2022/09/05 12:59:44;;;;;;;8.38;2.80;;;;;;;;;;4981506;28;20043;-52
2022/09/05 13:02:17;;;;;;;17.48;2.92;;;;;;;;;;5026615;28;20132;-49
2022/09/05 13:04:53;;;;;;;6.35;2.30;;;;;;;;;;5051319;28;20025;-49
2022/09/05 13:07:32;;;;;;;10.85;2.47;;;;;;;;;;5054857;28;20036;-50
2022/09/05 13:10:01;;;;;;;11.50;2.28;;;;;;;;;;5056350;28;20020;-49
2022/09/05 13:12:42;;;;;;;13.45;2.60;;;;;;;;;;5045126;28;20105;-46
2022/09/05 13:15:14;;;;;;;12.13;2.70;;;;;;;;;;5056640;28;20025;-53
2022/09/05 13:18:12;;;;;;;5.97;2.45;;;;;;;;;;5051361;28;20024;-50
2022/09/05 13:21:05;;;;;;;10.20;2.15;;;;;;;;;;5047599;28;20101;-48
2022/09/05 13:23:46;;;;;;;9.73;2.30;;;;;;;;;;5053571;28;20107;-50
2022/09/05 13:26:16;;;;;;;8.77;2.60;;;;;;;;;;5054923;28;20039;-48
2022/09/05 13:28:55;;;;;;;6.43;2.50;;;;;;;;;;5055025;28;20032;-49
2022/09/05 13:31:58;;;;;;;9.02;2.58;;;;;;;;;;5055564;28;20473;-49
2022/09/05 13:34:24;;;;;;;6.15;2.53;;;;;;;;;;5056690;28;20115;-50
2022/09/05 13:36:55;;;;;;;9.77;2.50;;;;;;;;;;5055252;28;20119;-50
2022/09/05 13:39:26;;;;;;;;;;;;;;;;;;5053373;28;20466;-48
2022/09/05 13:41:58;;;;;;;5.53;2.03;;;;;;;;;;5061215;28;19946;-49
2022/09/05 13:44:24;;;;;;;;;;;;;;;;;;5049221;28;20053;-48
2022/09/05 13:46:53;;;;;;;10.38;2.30;;;;;;;;;;5052439;28;20603;-48
2022/09/05 13:49:21;;;;;;;12.15;2.53;;;;;;;;;;5052360;28;20060;-40
2022/09/05 13:52:12;;;;;;;11.10;2.70;;;;;;;;;;5056674;28;20074;-47
2022/09/05 13:55:03;;;;;;;6.27;2.30;;;;;;;;;;5050707;28;20041;-49
2022/09/05 13:57:47;;;;;;;7.55;2.50;;;;;;;;;;5053499;28;20127;-47
2022/09/05 14:00:16;;;;;;;11.13;2.72;;;;;;;;;;5052836;28;20121;-48
2022/09/05 14:03:20;;;;;;;9.68;2.50;;;;;;;;;;5058368;28;20138;-48
2022/09/05 14:06:08;;;;;;;11.73;2.58;;;;;;;;;;5056921;28;20028;-46
2022/09/05 14:09:03;;;;;;;10.07;3.08;;;;;;;;;;5058093;28;20398;-51
2022/09/05 14:11:54;;;;;;;10.85;2.30;;;;;;;;;;5050328;28;20139;-51
2022/09/05 14:14:26;;;;;;;9.60;2.57;;;;;;;;;;5049348;28;20037;-51
2022/09/05 14:17:02;;;;;;;10.20;2.38;;;;;;;;;;5051221;28;20316;-48
2022/09/05 14:22:31;;;;;;;11.40;2.85;;;;;;;;;;5059227;28;20031;-49
2022/09/05 14:24:58;;;;;;;14.15;2.90;;;;;;;;;;5071002;28;20474;-49
2022/09/05 14:27:24;;;;;;;12.50;2.63;;;;;;;;;;5054732;28;20120;-46
2022/09/05 14:29:55;;;;;;;8.38;2.05;;;;;;;;;;5055900;28;20063;-49
2022/09/05 14:32:21;;;;;;;6.53;2.08;;;;;;;;;;5043305;28;20032;-51
2022/09/05 14:35:09;;;;;;;12.45;2.70;;;;;;;;;;5051239;28;20035;-48
2022/09/05 14:38:20;;;;;;;12.02;3.03;;;;;;;;;;5056010;28;20029;-53
2022/09/05 14:41:14;;;;;;;10.63;2.63;;;;;;;;;;4992631;28;20080;-53
2022/09/05 14:43:57;;;;;;;7.95;1.85;;;;;;;;;;4996631;28;20037;-52
2022/09/05 14:47:08;;;;;;;8.32;2.40;;;;;;;;;;4996596;28;20097;-54
2022/09/05 14:49:50;;;;;;;5.80;2.43;;;;;;;;;;4987478;28;20038;-51
2022/09/05 14:52:27;;;;;;;9.82;2.35;;;;;;;;;;5000542;28;20041;-52
2022/09/05 14:54:56;;;;;;;16.88;2.33;;;;;;;;;;4999887;28;20108;-51
2022/09/05 14:57:24;;;;;;;6.47;2.15;;;;;;;;;;4998360;28;20073;-50
2022/09/05 14:59:53;;;;;;;9.07;2.40;;;;;;;;;;4994146;28;20045;-52
2022/09/05 15:02:23;;;;;;;9.82;2.70;;;;;;;;;;4999873;28;20034;-54
2022/09/05 15:04:59;;;;;;;3.90;1.95;;;;;;;;;;4996110;28;20069;-50
2022/09/05 15:07:32;;;;;;;10.77;2.45;;;;;;;;;;4998053;28;20034;-48
2022/09/05 15:10:16;;;;;;;6.25;2.03;;;;;;;;;;4991448;28;20083;-48
2022/09/05 15:12:46;;;;;;;9.70;2.58;;;;;;;;;;5055310;28;20078;-52
2022/09/05 15:15:24;;;;;;;6.43;2.00;;;;;;;;;;5055793;28;20401;-49
2022/09/05 15:18:10;;;;;;;5.97;1.92;;;;;;;;;;5051742;28;20718;-49
2022/09/05 15:20:37;;;;;;;8.75;2.25;;;;;;;;;;5052987;28;20036;-50
2022/09/05 15:23:07;;;;;;;10.55;1.90;;;;;;;;;;5051669;28;20492;-48
2022/09/05 15:25:44;;;;;;;4.13;1.58;;;;;;;;;;5055565;28;20039;-53
2022/09/05 15:28:18;;;;;;;9.68;2.38;;;;;;;;;;5055865;28;20037;-46
2022/09/05 15:30:58;;;;;;;7.88;2.00;;;;;;;;;;5051882;28;23292;-49
2022/09/05 15:33:27;;;;;;;5.10;2.08;;;;;;;;;;5050362;28;20044;-46
2022/09/05 15:35:55;;;;;;;5.80;1.98;;;;;;;;;;5048598;28;20060;-47
2022/09/05 15:38:37;;;;;;;6.90;2.15;;;;;;;;;;5051658;28;20497;-50
2022/09/05 15:41:09;;;;;;;7.70;1.90;;;;;;;;;;5046529;28;20040;-47
2022/09/05 15:43:37;;;;;;;;;;;;;;;;;;5056055;28;20024;-50
2022/09/05 15:46:03;;;;;;;5.35;1.92;;;;;;;;;;5052672;28;20015;-53
2022/09/05 15:48:31;;;;;;;5.47;2.15;;;;;;;;;;5048129;28;20107;-50
2022/09/05 15:51:01;;;;;;;7.30;2.00;;;;;;;;;;5057583;28;20134;-47
2022/09/05 15:53:33;;;;;;;8.30;2.30;;;;;;;;;;5042960;28;20481;-47
2022/09/05 15:56:10;;;;;;;11.70;2.40;;;;;;;;;;5042925;28;20049;-51
2022/09/05 15:58:52;;;;;;;5.70;1.92;;;;;;;;;;5047913;28;20032;-48
2022/09/05 16:01:18;;;;;;;;;;;;;;;;;;5055408;28;20028;-48
2022/09/05 16:03:47;;;;;;;8.60;2.45;;;;;;;;;;5049947;28;19998;-48
2022/09/05 16:06:14;;;;;;;12.15;2.00;;;;;;;;;;5052989;28;20044;-49
2022/09/05 16:08:44;;;;;;;7.60;1.95;;;;;;;;;;5059054;28;20180;-50